North Central West Virginia Airport Clarksburg US
ICAO: KCKB
IATA: CKB
Category: Medium
Scheduled Services: Yes

Elevation: 1217 ft
TransAlt. 18000 ft.

Airport Communications:
CLARKSBURG APP/DEP:119.6
ATIS:127.825
CTAF:126.7
GND:121.9
ARNG OPS:139.05
ELKINS RDO:112.6
CLARKSBURG TWR:126.7
UNICOM:123

KCKB Zoom In..

Runways:

(A) RW 03 length 7800 ft width 150 ft
---- / hdg 31

(B) RW 21 length 7800 ft width 150 ft
ILS 109.30 / hdg 211

Location; KCKB
Day. 15 / Time. 09.53 Zulu
* Altimeter: 30.07
* Temperature: 22° c. 71.6°f.
* Wind from: 000° Speed 00 kn.
Dewpoint: 20° c.
Visibility: 8 Statute Miles.
Clouds: Few 7000 ft.

KCKB 150953Z 00000KT 8SM FEW070 22/20 A3007 RMK AO2 LTG DSNT W SLP163 T02220200


Wind - Calm.

 
 
jpsmedia.com for Web Design worldairports.se 2018   terms of use